EGCCEGNO

Guest
Details From EGCC - Manchester
To EGNO - Warton
Flight Number -
Tags Generated
Created
Modified
Stats Distance 32 nm / 60 km
Max Altitude 0 ft / 0 m
Waypoints 2
Social Downloads 0
Likes 0
Share VATSIM

Download

Looking for another format? Having issues loading an existing format? Contact us
Advertisement - Login to hide

Notes

Generated

Route

EGCC EGNO

ID Type Via Altitude Latitude Longitude Leg Dist Tot Dist Heading (true) Name
O EGCC APT - 0 ft / 0 m 53.33197˚ -2.31066˚ - 0 nm - -
O EGNO APT - 0 ft / 0 m 53.74544˚ -2.89709˚ 32 nm 32 nm 320° / 320° -

Altitude Profile

Advertisement - Login to hide

EGCC

Details ICAO EGCC (MAN)
Name Manchester Intl
Region United Kingdom
Timezone Europe/London (UTC+0.0)
Stats Elevation 257 ft / 78 m (AMSL)
Location 53.347141° -2.283954°
Runways 2
Magnetic Variation 1.461° W

METAR

EGCC 141850Z AUTO 22006KT 180V240 9999 SCT031 BKN037 03/02 Q0985 NOSIG

Decode

TAF

TAF AMD EGCC 141759Z 1418/1524 22012KT 9999 BKN009 BECMG 1418/1420 28010KT FEW025 TEMPO 1418/1504 6000 SHRA BKN010 PROB30 TEMPO 1422/1504 2000 SHRASN BKN004 BKN010CB BECMG 1500/1503 34009KT PROB30 TEMPO 1509/1517 35015G25KT PROB30 1522/1524 6000

Decode

Departure Runways

ID Width Length Bearing (true) Bearing (mag) Surface Threshold Offset Overrun Length
05L 151 ft / 46 m 9,981 ft / 3,042 m 50.99° 52.45° Asphalt 1,401 ft / 427 m 0 ft / 0 m
05R 151 ft / 46 m 9,952 ft / 3,033 m 50.97° 52.43° Asphalt 0 ft / 0 m 26 ft / 8 m
23L 151 ft / 46 m 9,952 ft / 3,033 m 231.00° 232.46° Asphalt 561 ft / 171 m 0 ft / 0 m
23R 151 ft / 46 m 9,981 ft / 3,042 m 231.02° 232.48° Asphalt 597 ft / 182 m 0 ft / 0 m

EGNO

Details ICAO EGNO
Name Warton Aerodrome
Region United Kingdom
Timezone Europe/London (UTC+0.0)
Stats Elevation 55 ft / 17 m (AMSL)
Location 53.744940° -2.883840°
Runways 1
Magnetic Variation 1.750° W

METAR

EGNO 141850Z 32011KT 9999 FEW030 06/01 Q0984

Decode

TAF

Not found

Destination Runways

ID Width Length Bearing (true) Bearing (mag) Surface Threshold Offset Overrun Length
08 151 ft / 46 m 7,906 ft / 2,410 m 71.11° 72.86° Asphalt 190 ft / 58 m 0 ft / 0 m
26 151 ft / 46 m 7,906 ft / 2,410 m 251.14° 252.89° Asphalt 0 ft / 0 m 0 ft / 0 m

Approach Navaids

Runway Type Ident Frequency Range Bearing (true) Bearing (mag) Slope Elevation
26 Localiser IWQ 109.90 MHz 18 nm / 33 km 251.10° 252.85° - 55 ft / 17 m (AMSL)
26 Glidescope IWQ 109.90 MHz 10 nm / 19 km 251.13° 252.87° 3.00° 55 ft / 17 m (AMSL)
26 DME IWQ 109.90 MHz 18 nm / 33 km - - - 55 ft / 17 m (AMSL)